Time;durP1;ratioP1;P1;durP2;ratioP2;P2;SDS_P1;SDS_P2;PMS_P1;PMS_P2;Temp;Humidity;BMP_temperature;BMP_pressure;BME280_temperature;BME280_humidity;BME280_pressure;Samples;Min_cycle;Max_cycle;Signal;HPM_P1;HPM_P2
2022/03/31 00:00:46;;;;;;;;;;;;;;;13.16;51.73;98741.19;3129622;28;19991;-62
2022/03/31 00:02:18;;;;;;;;;;;;;;;13.17;51.65;98741.09;3126149;28;19955;-63
2022/03/31 00:03:50;;;;;;;;;;;;;;;13.16;51.51;98730.72;3132736;28;19944;-63
2022/03/31 00:05:21;;;;;;;;;;;;;;;13.17;51.67;98730.63;3124646;28;19960;-61
2022/03/31 00:06:53;;;;;;;;;;;;;;;13.15;51.96;98729.91;3124781;28;19928;-61
2022/03/31 00:08:25;;;;;;;;;;;;;;;13.12;52.10;98734.53;3123533;28;19935;-60
2022/03/31 00:09:57;;;;;;;;;;;;;;;13.10;52.05;98737.28;3123745;28;20055;-62
2022/03/31 00:11:32;;;;;;;;;;;;;;;13.07;52.00;98747.09;3123175;28;20370;-62
2022/03/31 00:13:05;;;;;;;;;;;;;;;13.07;51.73;98741.84;3128042;28;19929;-61
2022/03/31 00:14:37;;;;;;;;;;;;;;;13.09;51.62;98745.22;3123439;28;19943;-63
2022/03/31 00:16:09;;;;;;;;;;;;;;;13.08;51.75;98738.31;3128419;28;19928;-63
2022/03/31 00:17:40;;;;;;;;;;;;;;;13.02;52.69;98741.38;3129244;28;19929;-63
2022/03/31 00:19:12;;;;;;;;;;;;;;;12.96;53.02;98730.41;3127138;28;20358;-63
2022/03/31 00:20:44;;;;;;;;;;;;;;;12.90;52.87;98715.19;3124599;28;20043;-63
2022/03/31 00:22:16;;;;;;;;;;;;;;;12.88;52.94;98714.44;3123044;28;20043;-61
2022/03/31 00:23:47;;;;;;;;;;;;;;;12.83;53.17;98724.38;3113329;28;20424;-61
2022/03/31 00:25:20;;;;;;;;;;;;;;;12.80;53.10;98724.59;3124463;28;20251;-62
2022/03/31 00:26:52;;;;;;;;;;;;;;;12.84;52.98;98727.84;3131155;28;19935;-64
2022/03/31 00:28:26;;;;;;;;;;;;;;;12.87;52.52;98725.84;3123684;28;20050;-61
2022/03/31 00:29:58;;;;;;;;;;;;;;;12.86;53.16;98718.94;3131031;28;19992;-62
2022/03/31 00:31:29;;;;;;;;;;;;;;;12.79;53.75;98720.34;3125987;28;20416;-63
2022/03/31 00:33:02;;;;;;;;;;;;;;;12.73;53.46;98715.56;3129806;28;20414;-62
2022/03/31 00:34:35;;;;;;;;;;;;;;;12.72;53.45;98724.34;3129092;28;19928;-62
2022/03/31 00:36:07;;;;;;;;;;;;;;;12.74;52.90;98731.09;3125500;28;20466;-63
2022/03/31 00:37:38;;;;;;;;;;;;;;;12.77;52.77;98732.66;3124423;28;19951;-63
2022/03/31 00:41:00;;;;;;;;;;;;;;;12.66;52.50;98696.88;3132860;28;20020;-62
2022/03/31 00:42:32;;;;;;;;;;;;;;;12.82;52.46;98727.94;3131194;28;20302;-62
2022/03/31 00:44:04;;;;;;;;;;;;;;;12.83;52.86;98728.78;3137052;28;19940;-62
2022/03/31 00:45:46;;;;;;;;;;;;;;;12.79;53.32;98732.56;3127975;28;19929;-62
2022/03/31 00:47:19;;;;;;;;;;;;;;;12.74;52.79;98728.47;3138114;28;19929;-62
2022/03/31 00:48:50;;;;;;;;;;;;;;;12.75;52.88;98731.97;3127963;28;19928;-62
2022/03/31 00:50:23;;;;;;;;;;;;;;;12.75;52.45;98721.50;3137282;28;19959;-62
2022/03/31 00:51:55;;;;;;;;;;;;;;;12.74;52.59;98712.81;3128048;28;19929;-62
2022/03/31 00:53:27;;;;;;;;;;;;;;;12.77;52.66;98718.78;3134827;28;20001;-62
2022/03/31 00:54:58;;;;;;;;;;;;;;;12.77;52.37;98727.44;3130724;28;19932;-62
2022/03/31 00:56:32;;;;;;;;;;;;;;;12.78;52.41;98716.06;3132273;28;19940;-62
2022/03/31 00:58:05;;;;;;;;;;;;;;;12.77;52.44;98716.16;3128923;28;19930;-63
2022/03/31 00:59:37;;;;;;;;;;;;;;;12.77;52.41;98727.44;3130025;28;19933;-63
2022/03/31 01:01:09;;;;;;;;;;;;;;;12.76;52.34;98728.41;3134889;28;19982;-63
2022/03/31 01:02:43;;;;;;;;;;;;;;;12.78;52.65;98721.28;3130028;28;20028;-63
2022/03/31 01:04:14;;;;;;;;;;;;;;;12.78;52.60;98736.09;3121941;28;20027;-62
2022/03/31 01:05:46;;;;;;;;;;;;;;;12.77;52.89;98732.66;3127691;28;20019;-62
2022/03/31 01:07:17;;;;;;;;;;;;;;;12.72;53.28;98722.56;3128608;28;20396;-62
2022/03/31 01:08:49;;;;;;;;;;;;;;;12.67;53.34;98716.81;3127511;28;19951;-61
2022/03/31 01:10:21;;;;;;;;;;;;;;;12.60;54.06;98718.22;3130976;28;19929;-62
2022/03/31 01:11:54;;;;;;;;;;;;;;;12.55;54.22;98719.47;3127288;28;19928;-62
2022/03/31 01:13:26;;;;;;;;;;;;;;;12.48;53.90;98719.91;3132742;28;20398;-62
2022/03/31 01:15:08;;;;;;;;;;;;;;;12.39;53.83;98709.25;3132245;28;19939;-62
2022/03/31 01:16:39;;;;;;;;;;;;;;;12.49;53.61;98732.00;3131553;28;19993;-62
2022/03/31 01:18:11;;;;;;;;;;;;;;;12.50;53.48;98718.00;3133069;28;20330;-62
2022/03/31 01:19:43;;;;;;;;;;;;;;;12.50;53.37;98723.22;3128820;28;20136;-61
2022/03/31 01:21:14;;;;;;;;;;;;;;;12.48;53.67;98722.53;3135844;28;19939;-62
2022/03/31 01:22:47;;;;;;;;;;;;;;;12.46;53.61;98726.19;3127827;28;20394;-62
2022/03/31 01:24:20;;;;;;;;;;;;;;;12.44;53.49;98739.31;3129163;28;19929;-61
2022/03/31 01:25:52;;;;;;;;;;;;;;;12.45;53.55;98745.38;3127393;28;19935;-61
2022/03/31 01:27:25;;;;;;;;;;;;;;;12.42;53.73;98729.91;3127792;28;19928;-61
2022/03/31 01:28:57;;;;;;;;;;;;;;;12.40;54.01;98722.22;3117982;28;19933;-63
2022/03/31 01:30:28;;;;;;;;;;;;;;;12.34;54.74;98729.66;3123363;28;19954;-61
2022/03/31 01:32:00;;;;;;;;;;;;;;;12.25;55.05;98724.13;3127284;28;19935;-61
2022/03/31 01:33:35;;;;;;;;;;;;;;;12.21;54.65;98727.84;3133228;28;19932;-62
2022/03/31 01:35:07;;;;;;;;;;;;;;;12.19;54.58;98731.53;3137572;28;20012;-61
2022/03/31 01:36:38;;;;;;;;;;;;;;;12.20;54.55;98746.25;3134716;28;19990;-61
2022/03/31 01:38:10;;;;;;;;;;;;;;;12.21;54.25;98738.28;3139864;28;20317;-61
2022/03/31 01:39:43;;;;;;;;;;;;;;;12.22;54.70;98733.94;3132331;28;19991;-61
2022/03/31 01:41:15;;;;;;;;;;;;;;;12.18;54.76;98735.91;3132442;28;19982;-61
2022/03/31 01:42:46;;;;;;;;;;;;;;;12.14;54.93;98737.06;3132130;28;19929;-61
2022/03/31 01:44:19;;;;;;;;;;;;;;;12.16;54.87;98729.13;3142227;28;20451;-61
2022/03/31 01:45:52;;;;;;;;;;;;;;;12.13;54.83;98730.19;3131847;28;19936;-61
2022/03/31 01:47:24;;;;;;;;;;;;;;;12.13;55.13;98713.69;3140117;28;19968;-61
2022/03/31 01:48:55;;;;;;;;;;;;;;;12.07;55.79;98712.34;3134580;28;20024;-61
2022/03/31 01:50:27;;;;;;;;;;;;;;;12.02;55.77;98701.38;3137418;28;20014;-61
2022/03/31 01:51:58;;;;;;;;;;;;;;;12.02;55.48;98698.75;3136946;28;19936;-60
2022/03/31 01:53:29;;;;;;;;;;;;;;;11.98;55.33;98710.31;3134740;28;19924;-61
2022/03/31 01:55:02;;;;;;;;;;;;;;;11.98;55.61;98705.09;3139965;28;19947;-61
2022/03/31 01:56:34;;;;;;;;;;;;;;;11.97;55.33;98699.06;3129025;28;19925;-61
2022/03/31 01:58:06;;;;;;;;;;;;;;;11.80;55.78;98675.88;3142127;28;19975;-61
2022/03/31 01:59:38;;;;;;;;;;;;;;;11.93;55.52;98697.63;3135392;28;19928;-61
2022/03/31 02:01:10;;;;;;;;;;;;;;;11.94;55.58;98698.44;3134425;28;19929;-61
2022/03/31 02:02:40;;;;;;;;;;;;;;;11.92;55.84;98695.09;3132002;28;19928;-61
2022/03/31 02:04:12;;;;;;;;;;;;;;;11.88;55.89;98697.09;3132499;28;20551;-61
2022/03/31 02:05:44;;;;;;;;;;;;;;;11.84;56.49;98695.59;3132119;28;19925;-62
2022/03/31 02:07:15;;;;;;;;;;;;;;;11.77;56.71;98696.94;3134601;28;19936;-61
2022/03/31 02:08:47;;;;;;;;;;;;;;;11.74;56.07;98698.00;3132074;28;20463;-61
2022/03/31 02:10:20;;;;;;;;;;;;;;;11.75;56.00;98709.28;3133566;28;20023;-61
2022/03/31 02:11:52;;;;;;;;;;;;;;;11.73;56.16;98703.31;3133851;28;20002;-61
2022/03/31 02:13:24;;;;;;;;;;;;;;;11.71;56.10;98693.00;3134530;28;19925;-61
2022/03/31 02:14:56;;;;;;;;;;;;;;;11.74;56.18;98695.41;3144481;28;20023;-62
2022/03/31 02:16:28;;;;;;;;;;;;;;;11.75;55.97;98683.19;3134807;28;19928;-61
2022/03/31 02:18:01;;;;;;;;;;;;;;;11.76;55.69;98680.47;3144646;28;19947;-61
2022/03/31 02:19:33;;;;;;;;;;;;;;;11.77;55.61;98678.69;3134597;28;19976;-62
2022/03/31 02:21:04;;;;;;;;;;;;;;;11.78;55.78;98678.59;3136956;28;19944;-61
2022/03/31 02:22:36;;;;;;;;;;;;;;;11.79;55.47;98682.03;3134308;28;19925;-61
2022/03/31 02:24:08;;;;;;;;;;;;;;;11.81;55.94;98688.00;3135478;28;19933;-62
2022/03/31 02:25:43;;;;;;;;;;;;;;;11.77;55.80;98691.72;3134851;28;19929;-61
2022/03/31 02:27:15;;;;;;;;;;;;;;;11.77;55.77;98700.41;3137872;28;19925;-61
2022/03/31 02:28:46;;;;;;;;;;;;;;;11.78;55.51;98704.69;3138620;28;19925;-61
2022/03/31 02:30:18;;;;;;;;;;;;;;;11.79;55.90;98706.34;3135276;28;19936;-61
2022/03/31 02:31:50;;;;;;;;;;;;;;;11.74;56.44;98704.97;3143771;28;19928;-61
2022/03/31 02:33:21;;;;;;;;;;;;;;;11.69;56.30;98704.47;3134845;28;19929;-61
2022/03/31 02:34:52;;;;;;;;;;;;;;;11.68;56.49;98698.41;3144748;28;19928;-61
2022/03/31 02:36:24;;;;;;;;;;;;;;;11.69;55.94;98689.66;3136058;28;19925;-61
2022/03/31 02:37:55;;;;;;;;;;;;;;;11.70;55.84;98706.97;3138966;28;19925;-62
2022/03/31 02:39:28;;;;;;;;;;;;;;;11.73;55.75;98700.72;3134624;28;20285;-61
2022/03/31 02:41:01;;;;;;;;;;;;;;;11.74;55.86;98711.06;3135671;28;19929;-61
2022/03/31 02:42:32;;;;;;;;;;;;;;;11.74;55.72;98702.38;3133810;28;19929;-61
2022/03/31 02:44:03;;;;;;;;;;;;;;;11.75;55.65;98709.28;3135576;28;19928;-61
2022/03/31 02:45:35;;;;;;;;;;;;;;;11.76;55.55;98700.50;3134547;28;19929;-61
2022/03/31 02:47:06;;;;;;;;;;;;;;;11.77;55.90;98699.56;3134644;28;19925;-61
2022/03/31 02:48:37;;;;;;;;;;;;;;;11.77;55.50;98699.56;3143817;28;20532;-61
2022/03/31 02:50:09;;;;;;;;;;;;;;;11.76;55.79;98700.50;3134450;28;19995;-61
2022/03/31 02:51:41;;;;;;;;;;;;;;;11.75;55.83;98709.28;3144260;28;20299;-61
2022/03/31 02:57:01;;;;;;;;;;;;;;;11.73;55.61;98732.84;3074765;28;20069;-61
2022/03/31 02:58:33;;;;;;;;;;;;;;;11.72;55.38;98728.56;3133990;28;19936;-61
2022/03/31 03:00:05;;;;;;;;;;;;;;;11.70;55.44;98727.81;3134075;28;19925;-61
2022/03/31 03:01:37;;;;;;;;;;;;;;;11.70;55.65;98711.34;3134973;28;20402;-61
2022/03/31 03:03:10;;;;;;;;;;;;;;;11.67;55.62;98701.94;3134130;28;19928;-61
2022/03/31 03:04:40;;;;;;;;;;;;;;;11.66;55.74;98686.44;3138916;28;20054;-61
2022/03/31 03:06:13;;;;;;;;;;;;;;;11.58;56.33;98690.38;3130436;28;19928;-62
2022/03/31 03:07:44;;;;;;;;;;;;;;;11.58;56.35;98707.78;3136557;28;19939;-62
2022/03/31 03:09:16;;;;;;;;;;;;;;;11.58;56.02;98713.84;3134047;28;19950;-61
2022/03/31 03:10:48;;;;;;;;;;;;;;;11.59;56.08;98709.44;3135411;28;19986;-61
2022/03/31 03:12:20;;;;;;;;;;;;;;;11.54;56.58;98704.56;3134342;28;20015;-62
2022/03/31 03:13:51;;;;;;;;;;;;;;;11.51;56.69;98693.50;3133904;28;19936;-62
2022/03/31 03:15:24;;;;;;;;;;;;;;;11.43;57.00;98694.00;3144160;28;19928;-61
2022/03/31 03:16:56;;;;;;;;;;;;;;;11.41;57.16;98689.81;3134119;28;19932;-62
2022/03/31 03:18:28;;;;;;;;;;;;;;;11.40;56.83;98696.81;3135078;28;20002;-62
2022/03/31 03:19:59;;;;;;;;;;;;;;;11.41;56.93;98695.03;3133921;28;19924;-62
2022/03/31 03:21:31;;;;;;;;;;;;;;;11.42;56.57;98697.56;3140670;28;19977;-62
2022/03/31 03:23:02;;;;;;;;;;;;;;;11.44;56.57;98690.44;3136845;28;19929;-62
2022/03/31 03:24:33;;;;;;;;;;;;;;;11.46;56.73;98692.97;3133546;28;20046;-61
2022/03/31 03:26:05;;;;;;;;;;;;;;;11.45;56.47;98692.13;3133793;28;20429;-62
2022/03/31 03:27:38;;;;;;;;;;;;;;;11.46;56.69;98698.19;3135221;28;19925;-61
2022/03/31 03:29:10;;;;;;;;;;;;;;;11.39;57.36;98685.56;3134901;28;19929;-61
2022/03/31 03:30:41;;;;;;;;;;;;;;;11.33;58.40;98685.97;3133691;28;19962;-61
2022/03/31 03:32:13;;;;;;;;;;;;;;;11.29;58.28;98681.03;3143846;28;19960;-61
2022/03/31 03:33:45;;;;;;;;;;;;;;;11.24;59.06;98680.50;3134016;28;19964;-61
2022/03/31 03:35:17;;;;;;;;;;;;;;;11.24;58.27;98686.56;3134556;28;19931;-62
2022/03/31 03:36:48;;;;;;;;;;;;;;;11.26;58.55;98694.28;3133846;28;20461;-61
2022/03/31 03:38:20;;;;;;;;;;;;;;;11.26;58.59;98681.25;3139957;28;20372;-61
2022/03/31 03:39:52;;;;;;;;;;;;;;;11.22;59.33;98685.00;3137216;28;19925;-62
2022/03/31 03:41:23;;;;;;;;;;;;;;;11.18;59.48;98681.75;3132657;28;19925;-61
2022/03/31 03:42:56;;;;;;;;;;;;;;;11.16;59.52;98684.44;3133354;28;19948;-61
2022/03/31 03:44:27;;;;;;;;;;;;;;;11.02;59.72;98661.06;3134771;28;19956;-61
2022/03/31 03:45:59;;;;;;;;;;;;;;;11.13;59.64;98666.41;3141748;28;20496;-61
2022/03/31 03:47:30;;;;;;;;;;;;;;;11.15;59.03;98677.56;3133697;28;19958;-61
2022/03/31 03:49:02;;;;;;;;;;;;;;;11.18;58.93;98678.28;3135050;28;19936;-62
2022/03/31 03:50:34;;;;;;;;;;;;;;;11.21;59.33;98683.31;3133648;28;19925;-61
2022/03/31 03:52:06;;;;;;;;;;;;;;;11.23;58.89;98686.66;3142298;28;19960;-61
2022/03/31 03:53:38;;;;;;;;;;;;;;;11.26;58.66;98696.88;3134674;28;20321;-62
2022/03/31 03:55:10;;;;;;;;;;;;;;;11.30;58.82;98700.97;3137266;28;19998;-62
2022/03/31 03:56:43;;;;;;;;;;;;;;;11.33;59.10;98700.78;3133579;28;19925;-62
2022/03/31 03:58:16;;;;;;;;;;;;;;;11.33;58.89;98698.16;3133962;28;19925;-62
2022/03/31 03:59:47;;;;;;;;;;;;;;;11.36;58.66;98692.75;3133513;28;19929;-61
2022/03/31 04:01:20;;;;;;;;;;;;;;;11.41;58.42;98689.81;3133622;28;20421;-61
2022/03/31 04:02:52;;;;;;;;;;;;;;;11.42;58.61;98696.69;3130261;28;19931;-61
2022/03/31 04:04:23;;;;;;;;;;;;;;;11.44;58.54;98695.66;3133455;28;19926;-61
2022/03/31 04:05:55;;;;;;;;;;;;;;;11.46;58.55;98698.19;3143268;28;19932;-61
2022/03/31 04:07:27;;;;;;;;;;;;;;;11.47;58.56;98695.44;3133430;28;20012;-62
2022/03/31 04:08:58;;;;;;;;;;;;;;;11.50;58.49;98689.19;3142675;28;19929;-61
2022/03/31 04:10:30;;;;;;;;;;;;;;;11.46;59.26;98683.38;3133694;28;20408;-62
2022/03/31 04:12:02;;;;;;;;;;;;;;;11.42;59.52;98679.31;3139607;28;19924;-62
2022/03/31 04:13:35;;;;;;;;;;;;;;;11.39;59.75;98682.13;3136815;28;19982;-61
2022/03/31 04:15:07;;;;;;;;;;;;;;;11.36;59.62;98677.09;3134924;28;19935;-61
2022/03/31 04:16:39;;;;;;;;;;;;;;;11.37;59.48;98684.81;3133187;28;19929;-61
2022/03/31 04:18:11;;;;;;;;;;;;;;;11.42;59.15;98692.34;3132559;28;20323;-61
2022/03/31 04:19:43;;;;;;;;;;;;;;;11.45;59.02;98686.09;3133146;28;19933;-61
2022/03/31 04:21:15;;;;;;;;;;;;;;;11.45;59.35;98678.28;3133278;28;19925;-61
2022/03/31 04:22:46;;;;;;;;;;;;;;;11.42;59.58;98663.66;3143394;28;19980;-61
2022/03/31 04:24:18;;;;;;;;;;;;;;;11.42;59.60;98661.06;3133135;28;19929;-61
2022/03/31 04:25:49;;;;;;;;;;;;;;;11.39;59.57;98671.69;3133199;28;19932;-61
2022/03/31 04:27:21;;;;;;;;;;;;;;;11.38;59.65;98672.59;3132861;28;19925;-61
2022/03/31 04:28:54;;;;;;;;;;;;;;;11.38;60.03;98683.03;3139658;28;19928;-61
2022/03/31 04:30:26;;;;;;;;;;;;;;;11.40;59.15;98678.56;3135934;28;19933;-61
2022/03/31 04:31:57;;;;;;;;;;;;;;;11.45;59.10;98686.91;3138766;28;19935;-61
2022/03/31 04:33:29;;;;;;;;;;;;;;;11.49;58.93;98677.94;3132943;28;20290;-61
2022/03/31 04:35:00;;;;;;;;;;;;;;;11.53;58.64;98674.19;3134056;28;19936;-61
2022/03/31 04:36:32;;;;;;;;;;;;;;;11.58;58.47;98676.50;3141474;28;19933;-61
2022/03/31 04:38:04;;;;;;;;;;;;;;;11.60;59.08;98675.47;3133232;28;19925;-62
2022/03/31 04:39:36;;;;;;;;;;;;;;;11.59;59.13;98668.59;3142922;28;19935;-62
2022/03/31 04:41:07;;;;;;;;;;;;;;;11.62;58.65;98664.91;3132826;28;19929;-62
2022/03/31 04:42:39;;;;;;;;;;;;;;;11.65;58.43;98664.69;3134296;28;19933;-62
2022/03/31 04:44:12;;;;;;;;;;;;;;;11.69;58.28;98670.56;3132902;28;19925;-61
2022/03/31 04:45:44;;;;;;;;;;;;;;;11.72;58.17;98668.59;3139354;28;19967;-62
2022/03/31 04:47:15;;;;;;;;;;;;;;;11.76;58.21;98664.81;3135915;28;19925;-62
2022/03/31 04:48:47;;;;;;;;;;;;;;;11.80;58.26;98663.69;3137173;28;19948;-62
2022/03/31 04:50:19;;;;;;;;;;;;;;;11.83;58.19;98670.44;3138270;28;20402;-62
2022/03/31 04:51:50;;;;;;;;;;;;;;;11.84;58.36;98683.38;3139395;28;19928;-61
2022/03/31 04:53:22;;;;;;;;;;;;;;;11.83;58.29;98691.31;3132623;28;19932;-62
2022/03/31 04:54:53;;;;;;;;;;;;;;;11.87;58.46;98694.59;3132773;28;19935;-62
2022/03/31 04:56:25;;;;;;;;;;;;;;;11.91;57.94;98693.44;3132586;28;19932;-62
2022/03/31 04:57:56;;;;;;;;;;;;;;;11.95;58.02;98697.50;3133697;28;19994;-62
2022/03/31 04:59:29;;;;;;;;;;;;;;;11.95;58.00;98706.19;3135642;28;20320;-62
2022/03/31 05:01:07;;;;;;;;;;;;;;;11.99;57.82;98715.47;3132512;28;20908;-61
2022/03/31 05:02:39;;;;;;;;;;;;;;;12.03;57.59;98719.50;3132478;28;19929;-61
2022/03/31 05:04:12;;;;;;;;;;;;;;;12.05;57.62;98720.25;3132517;28;19929;-61
2022/03/31 05:05:43;;;;;;;;;;;;;;;12.05;57.62;98717.66;3137701;28;19924;-60
2022/03/31 05:07:15;;;;;;;;;;;;;;;12.06;57.70;98716.69;3137441;28;19925;-61
2022/03/31 05:08:47;;;;;;;;;;;;;;;12.11;57.58;98723.41;3135508;28;19935;-61
2022/03/31 05:10:19;;;;;;;;;;;;;;;12.13;57.55;98718.91;3140067;28;19932;-61
2022/03/31 05:11:50;;;;;;;;;;;;;;;12.14;57.68;98715.34;3132446;28;19933;-62
2022/03/31 05:13:22;;;;;;;;;;;;;;;12.16;57.58;98705.66;3142185;28;19948;-62
2022/03/31 05:14:55;;;;;;;;;;;;;;;12.15;57.88;98703.97;3132512;28;19925;-61
2022/03/31 05:16:26;;;;;;;;;;;;;;;12.13;57.99;98700.66;3132333;28;20016;-61
2022/03/31 05:17:58;;;;;;;;;;;;;;;12.13;58.37;98700.66;3132510;28;20390;-61
2022/03/31 05:19:29;;;;;;;;;;;;;;;12.09;58.44;98707.00;3139179;28;19989;-62
2022/03/31 05:21:01;;;;;;;;;;;;;;;12.06;58.88;98714.09;3135283;28;19959;-61
2022/03/31 05:22:35;;;;;;;;;;;;;;;12.03;58.77;98709.06;3136229;28;19928;-61
2022/03/31 05:24:07;;;;;;;;;;;;;;;12.04;58.62;98720.38;3138071;28;19932;-61
2022/03/31 05:25:39;;;;;;;;;;;;;;;12.06;58.44;98719.31;3134262;28;19985;-61
2022/03/31 05:27:10;;;;;;;;;;;;;;;12.09;58.53;98717.44;3140645;28;20278;-61
2022/03/31 05:28:42;;;;;;;;;;;;;;;12.09;58.76;98709.59;3132660;28;19932;-60
2022/03/31 05:30:17;;;;;;;;;;;;;;;12.06;58.76;98700.22;3133019;28;20446;-60
2022/03/31 05:31:48;;;;;;;;;;;;;;;12.05;58.83;98699.38;3131723;28;19951;-61
2022/03/31 05:33:20;;;;;;;;;;;;;;;12.08;58.71;98711.38;3133802;28;19936;-61
2022/03/31 05:34:52;;;;;;;;;;;;;;;12.11;58.48;98715.56;3132855;28;19999;-60
2022/03/31 05:36:24;;;;;;;;;;;;;;;12.14;58.78;98710.97;3139460;28;19924;-60
2022/03/31 05:37:56;;;;;;;;;;;;;;;12.21;58.59;98711.38;3135347;28;19924;-60
2022/03/31 05:39:27;;;;;;;;;;;;;;;12.25;58.35;98705.00;3135905;28;19929;-61
2022/03/31 05:41:00;;;;;;;;;;;;;;;12.24;58.37;98706.75;3134812;28;19928;-61
2022/03/31 05:42:32;;;;;;;;;;;;;;;12.25;58.61;98707.63;3137298;28;19932;-61
2022/03/31 05:44:04;;;;;;;;;;;;;;;12.26;58.41;98711.88;3136116;28;19970;-61
2022/03/31 05:45:37;;;;;;;;;;;;;;;12.27;58.58;98714.41;3136826;28;19928;-61
2022/03/31 05:47:09;;;;;;;;;;;;;;;12.28;58.90;98717.84;3137241;28;19991;-61
2022/03/31 05:48:40;;;;;;;;;;;;;;;12.27;58.88;98718.78;3136251;28;20434;-61
2022/03/31 05:50:13;;;;;;;;;;;;;;;12.32;58.49;98728.91;3133156;28;19929;-61
2022/03/31 05:51:50;;;;;;;;;;;;;;;12.33;58.43;98726.16;3133206;28;19929;-61
2022/03/31 05:53:22;;;;;;;;;;;;;;;12.40;58.40;98739.66;3135067;28;19928;-61
2022/03/31 05:54:53;;;;;;;;;;;;;;;12.46;58.30;98741.84;3135599;28;19929;-61
2022/03/31 05:56:26;;;;;;;;;;;;;;;12.45;58.40;98741.00;3139040;28;19935;-61
2022/03/31 05:57:57;;;;;;;;;;;;;;;12.46;58.65;98728.78;3131417;28;19960;-61
2022/03/31 05:59:29;;;;;;;;;;;;;;;12.45;58.45;98729.72;3131550;28;20426;-61
2022/03/31 06:01:02;;;;;;;;;;;;;;;12.45;58.48;98730.56;3131758;28;19928;-62
2022/03/31 06:02:34;;;;;;;;;;;;;;;12.50;58.08;98725.84;3132133;28;19925;-62
2022/03/31 06:04:05;;;;;;;;;;;;;;;12.55;58.09;98737.75;3133214;28;20325;-61
2022/03/31 06:05:37;;;;;;;;;;;;;;;12.52;58.59;98728.34;3131865;28;20329;-62
2022/03/31 06:07:09;;;;;;;;;;;;;;;12.49;58.84;98720.72;3135352;28;19974;-61
2022/03/31 06:08:40;;;;;;;;;;;;;;;12.47;58.97;98723.44;3131902;28;19936;-62
2022/03/31 06:10:12;;;;;;;;;;;;;;;12.51;58.54;98739.72;3132898;28;20011;-62
2022/03/31 06:11:44;;;;;;;;;;;;;;;12.55;58.45;98748.19;3131465;28;19990;-61
2022/03/31 06:13:16;;;;;;;;;;;;;;;12.59;58.38;98747.84;3131711;28;19931;-62
2022/03/31 06:14:47;;;;;;;;;;;;;;;12.59;58.26;98741.81;3131491;28;19932;-62
2022/03/31 06:16:20;;;;;;;;;;;;;;;12.57;58.72;98730.63;3131633;28;20003;-62
2022/03/31 06:17:51;;;;;;;;;;;;;;;12.52;58.69;98738.78;3134927;28;19928;-62
2022/03/31 06:19:23;;;;;;;;;;;;;;;12.48;58.78;98743.41;3131533;28;19928;-62
2022/03/31 06:20:54;;;;;;;;;;;;;;;12.50;58.65;98754.56;3132531;28;19932;-62
2022/03/31 06:22:26;;;;;;;;;;;;;;;12.50;58.59;98758.94;3131860;28;19929;-63
2022/03/31 06:23:58;;;;;;;;;;;;;;;12.56;58.19;98757.69;3133276;28;19929;-62
2022/03/31 06:25:30;;;;;;;;;;;;;;;12.53;58.42;98761.34;3129612;28;20004;-62
2022/03/31 06:27:01;;;;;;;;;;;;;;;12.59;58.37;98773.16;3134341;28;19925;-62
2022/03/31 06:28:33;;;;;;;;;;;;;;;12.59;58.50;98779.19;3138273;28;19976;-61
2022/03/31 06:30:06;;;;;;;;;;;;;;;12.59;58.35;98778.38;3132222;28;19980;-62
2022/03/31 06:31:39;;;;;;;;;;;;;;;12.61;58.17;98766.03;3141715;28;20015;-61
2022/03/31 06:33:10;;;;;;;;;;;;;;;12.63;58.37;98751.09;3132715;28;19928;-62
2022/03/31 06:34:42;;;;;;;;;;;;;;;12.69;57.92;98745.47;3140010;28;20485;-65
2022/03/31 06:36:14;;;;;;;;;;;;;;;12.72;57.96;98740.00;3138165;28;19928;-70
2022/03/31 06:37:46;;;;;;;;;;;;;;;12.76;57.91;98736.22;3136372;28;19990;-70
2022/03/31 06:39:17;;;;;;;;;;;;;;;12.83;57.75;98713.94;3136966;28;20474;-70
2022/03/31 06:42:34;;;;;;;;;;;;;;;12.93;57.44;98712.34;3135591;28;19929;-68
2022/03/31 06:44:07;;;;;;;;;;;;;;;12.98;57.62;98691.94;3135317;28;19925;-69
2022/03/31 06:45:39;;;;;;;;;;;;;;;13.01;57.66;98690.03;3133027;28;19950;-67
2022/03/31 06:47:12;;;;;;;;;;;;;;;12.97;57.56;98694.66;3135546;28;19951;-67
2022/03/31 06:48:46;;;;;;;;;;;;;;;12.92;57.67;98700.19;3132053;28;19929;-66
2022/03/31 06:50:17;;;;;;;;;;;;;;;12.94;57.54;98703.56;3133716;28;20009;-67
2022/03/31 06:51:49;;;;;;;;;;;;;;;12.97;57.65;98712.94;3137100;28;20016;-67
2022/03/31 06:53:20;;;;;;;;;;;;;;;13.02;57.28;98697.78;3135653;28;19933;-67
2022/03/31 06:54:52;;;;;;;;;;;;;;;13.02;57.70;98696.94;3132325;28;19925;-67
2022/03/31 06:56:27;;;;;;;;;;;;;;;12.98;57.85;98699.78;3136048;28;20007;-67
2022/03/31 06:57:58;;;;;;;;;;;;;;;13.00;57.36;98704.88;3137896;28;20371;-67
2022/03/31 06:59:31;;;;;;;;;;;;;;;13.09;57.21;98714.66;3133747;28;19979;-67
2022/03/31 07:01:04;;;;;;;;;;;;;;;13.15;57.46;98719.44;3138054;28;19928;-68
2022/03/31 07:02:37;;;;;;;;;;;;;;;13.25;56.96;98722.28;3138144;28;19932;-66
2022/03/31 07:04:10;;;;;;;;;;;;;;;13.30;57.05;98722.75;3131289;28;19928;-66
2022/03/31 07:05:41;;;;;;;;;;;;;;;13.35;56.91;98731.09;3140366;28;19983;-66
2022/03/31 07:07:15;;;;;;;;;;;;;;;13.41;56.92;98730.66;3139515;28;19929;-69
2022/03/31 07:08:47;;;;;;;;;;;;;;;13.60;56.26;98744.97;3139897;28;19932;-64
2022/03/31 07:10:19;;;;;;;;;;;;;;;13.85;55.90;98763.13;3134225;28;19990;-66
2022/03/31 07:11:50;;;;;;;;;;;;;;;14.08;55.55;98760.56;3138149;28;20487;-67
2022/03/31 07:13:22;;;;;;;;;;;;;;;14.22;55.04;98759.50;3136688;28;19929;-75
2022/03/31 07:14:53;;;;;;;;;;;;;;;14.37;54.60;98765.34;3136794;28;19924;-66
2022/03/31 07:16:25;;;;;;;;;;;;;;;14.49;54.42;98769.63;3138153;28;20000;-65
2022/03/31 07:18:03;;;;;;;;;;;;;;;14.63;54.04;98761.56;3138221;28;19932;-67
2022/03/31 07:19:34;;;;;;;;;;;;;;;14.76;53.62;98750.97;3136261;28;19936;-64
2022/03/31 07:21:06;;;;;;;;;;;;;;;14.89;53.48;98756.06;3133851;28;19932;-66
2022/03/31 07:22:43;;;;;;;;;;;;;;;15.00;53.25;98756.03;3135975;28;19936;-69
2022/03/31 07:24:15;;;;;;;;;;;;;;;15.05;53.06;98755.66;3137231;28;19928;-71
2022/03/31 07:25:47;;;;;;;;;;;;;;;15.12;52.68;98757.66;3139427;28;20320;-71
2022/03/31 07:27:19;;;;;;;;;;;;;;;15.20;52.59;98760.50;3140197;28;20345;-70
2022/03/31 07:28:51;;;;;;;;;;;;;;;15.31;52.21;98764.03;3134823;28;19983;-72
2022/03/31 07:30:23;;;;;;;;;;;;;;;15.42;52.34;98766.63;3134824;28;19929;-67
2022/03/31 07:31:55;;;;;;;;;;;;;;;15.50;51.96;98755.50;3133809;28;19928;-69
2022/03/31 07:33:28;;;;;;;;;;;;;;;15.60;51.54;98745.91;3134603;28;19968;-69
2022/03/31 07:35:00;;;;;;;;;;;;;;;15.71;51.42;98752.94;3137430;28;19925;-69
2022/03/31 07:36:32;;;;;;;;;;;;;;;15.71;51.34;98748.53;3143303;28;20313;-68
2022/03/31 07:38:04;;;;;;;;;;;;;;;15.72;51.34;98751.97;3137399;28;19981;-68
2022/03/31 07:39:36;;;;;;;;;;;;;;;15.83;51.00;98763.25;3134984;28;19935;-68
2022/03/31 07:41:07;;;;;;;;;;;;;;;15.97;50.85;98764.69;3136519;28;19936;-69
2022/03/31 07:42:39;;;;;;;;;;;;;;;16.12;50.44;98746.84;3135197;28;20417;-68
2022/03/31 07:44:11;;;;;;;;;;;;;;;16.32;50.52;98747.75;3134926;28;19933;-68
2022/03/31 07:45:42;;;;;;;;;;;;;;;16.51;50.04;98739.97;3142022;28;19985;-68
2022/03/31 07:47:14;;;;;;;;;;;;;;;16.73;49.76;98749.44;3134938;28;20011;-68
2022/03/31 07:48:47;;;;;;;;;;;;;;;16.98;49.45;98750.78;3136121;28;19946;-67
2022/03/31 07:50:20;;;;;;;;;;;;;;;17.16;48.99;98743.06;3139107;28;19947;-68
2022/03/31 07:51:51;;;;;;;;;;;;;;;17.23;48.84;98733.63;3135183;28;19928;-68
2022/03/31 07:53:23;;;;;;;;;;;;;;;17.28;48.45;98736.69;3136469;28;20365;-69
2022/03/31 07:54:54;;;;;;;;;;;;;;;17.31;48.36;98732.97;3138575;28;19939;-68
2022/03/31 07:56:25;;;;;;;;;;;;;;;17.42;48.47;98722.28;3129733;28;19928;-70
2022/03/31 07:57:57;;;;;;;;;;;;;;;17.53;48.30;98716.03;3132890;28;20396;-72
2022/03/31 07:59:33;;;;;;;;;;;;;;;17.68;48.10;98713.81;3134504;28;19929;-72
2022/03/31 08:01:05;;;;;;;;;;;;;;;17.83;47.88;98707.16;3132783;28;19983;-70
2022/03/31 08:02:37;;;;;;;;;;;;;;;17.83;47.75;98706.31;3133791;28;20369;-70
2022/03/31 08:04:10;;;;;;;;;;;;;;;17.81;47.91;98693.31;3133660;28;19979;-70
2022/03/31 08:05:42;;;;;;;;;;;;;;;17.91;47.25;98688.00;3132967;28;21373;-69
2022/03/31 08:07:14;;;;;;;;;;;;;;;18.01;47.36;98706.41;3143740;28;19925;-69